createdAt,value
2023-01-09T00:01:30.022Z,28.02
2023-01-09T00:03:57.677Z,26.35
2023-01-09T00:06:25.308Z,26.98
2023-01-09T00:08:52.628Z,28.52
2023-01-09T00:11:20.747Z,29.25
2023-01-09T00:13:48.190Z,26.42
2023-01-09T00:16:16.717Z,29.70
2023-01-09T00:18:44.098Z,30.10
2023-01-09T00:21:13.514Z,29.17
2023-01-09T00:23:41.086Z,28.45
2023-01-09T00:26:17.095Z,28.35
2023-01-09T00:28:47.592Z,29.52
2023-01-09T00:31:16.146Z,29.40
2023-01-09T00:33:50.472Z,27.75
2023-01-09T00:36:18.176Z,26.77
2023-01-09T00:38:45.459Z,28.27
2023-01-09T00:41:23.332Z,27.55
2023-01-09T00:43:58.726Z,28.23
2023-01-09T00:46:38.881Z,29.55
2023-01-09T00:49:09.738Z,28.25
2023-01-09T00:51:39.185Z,29.77
2023-01-09T00:54:06.930Z,29.35
2023-01-09T00:56:36.268Z,28.67
2023-01-09T00:59:04.705Z,28.75
2023-01-09T01:01:32.354Z,29.33
2023-01-09T01:04:19.814Z,30.92
2023-01-09T01:07:05.872Z,31.17
2023-01-09T01:09:33.243Z,33.25
2023-01-09T01:12:07.233Z,29.15
2023-01-09T01:14:39.599Z,30.48
2023-01-09T01:17:08.302Z,28.65
2023-01-09T01:19:36.444Z,32.00
2023-01-09T01:22:04.121Z,32.28
2023-01-09T01:24:31.542Z,31.73
2023-01-09T01:26:59.117Z,33.75
2023-01-09T01:29:27.882Z,33.80
2023-01-09T01:31:55.531Z,33.20
2023-01-09T01:34:23.127Z,35.58
2023-01-09T01:36:50.698Z,32.35
2023-01-09T01:39:18.211Z,32.60
2023-01-09T01:41:45.865Z,43.67
2023-01-09T01:45:00.029Z,39.95
2023-01-09T01:47:49.091Z,41.75
2023-01-09T01:50:49.917Z,41.03
2023-01-09T01:53:39.756Z,39.53
2023-01-09T01:56:30.504Z,40.70
2023-01-09T01:59:36.747Z,37.83
2023-01-09T02:02:05.296Z,37.80
2023-01-09T02:04:40.134Z,36.92
2023-01-09T02:07:10.315Z,39.22
2023-01-09T02:09:42.169Z,39.53
2023-01-09T02:12:26.075Z,37.92
2023-01-09T02:15:05.097Z,39.03
2023-01-09T02:18:04.305Z,39.85
2023-01-09T02:20:50.703Z,34.58
2023-01-09T02:23:50.930Z,37.03
2023-01-09T02:26:49.032Z,33.67
2023-01-09T02:29:43.956Z,37.80
2023-01-09T02:32:29.542Z,34.35
2023-01-09T02:35:32.883Z,41.90
2023-01-09T02:38:15.299Z,42.13
2023-01-09T02:41:11.412Z,40.17
2023-01-09T02:43:41.811Z,39.97
2023-01-09T02:46:21.797Z,38.75
2023-01-09T02:48:54.441Z,40.20
2023-01-09T02:51:54.413Z,42.88
2023-01-09T02:54:49.692Z,41.95
2023-01-09T02:57:49.872Z,39.95
2023-01-09T03:00:32.560Z,43.78
2023-01-09T03:03:11.619Z,47.83
2023-01-09T03:05:51.982Z,46.58
2023-01-09T03:08:25.180Z,45.78
2023-01-09T03:11:06.803Z,39.72
2023-01-09T03:13:46.080Z,40.35
2023-01-09T03:16:21.786Z,38.85
2023-01-09T03:18:51.892Z,42.30
2023-01-09T03:21:21.681Z,41.45
2023-01-09T03:23:58.576Z,41.42
2023-01-09T03:26:29.198Z,41.65
2023-01-09T03:28:57.772Z,44.78
2023-01-09T03:31:25.931Z,40.78
2023-01-09T03:33:53.789Z,42.75
2023-01-09T03:36:22.945Z,44.53
2023-01-09T03:38:51.536Z,47.00
2023-01-09T03:41:19.892Z,45.80
2023-01-09T03:43:48.601Z,42.90
2023-01-09T03:46:17.613Z,45.20
2023-01-09T03:48:44.967Z,44.40
2023-01-09T03:51:12.608Z,47.30
2023-01-09T03:53:40.006Z,45.72
2023-01-09T03:56:08.061Z,44.20
2023-01-09T03:58:35.356Z,45.38
2023-01-09T04:01:05.971Z,44.08
2023-01-09T04:03:33.334Z,44.65
2023-01-09T04:06:01.927Z,45.42
2023-01-09T04:08:29.179Z,45.92
2023-01-09T04:10:57.090Z,45.58
2023-01-09T04:13:24.507Z,46.78
2023-01-09T04:15:52.033Z,43.80
2023-01-09T04:18:19.313Z,46.53
2023-01-09T04:20:50.044Z,50.60
2023-01-09T04:23:17.466Z,43.05
2023-01-09T04:25:45.898Z,48.45
2023-01-09T04:28:13.262Z,43.17
2023-01-09T04:30:40.808Z,46.53
2023-01-09T04:33:08.076Z,41.08
2023-01-09T04:35:35.645Z,48.28
2023-01-09T04:38:03.022Z,49.00
2023-01-09T04:40:30.596Z,46.60
2023-01-09T04:42:57.804Z,44.67
2023-01-09T04:45:25.375Z,46.78
2023-01-09T04:47:52.658Z,39.58
2023-01-09T04:50:20.277Z,39.50
2023-01-09T04:52:47.570Z,39.13
2023-01-09T04:55:15.140Z,38.25
2023-01-09T04:57:42.377Z,43.75
2023-01-09T05:00:12.403Z,42.42
2023-01-09T05:02:40.943Z,44.95
2023-01-09T05:05:11.707Z,39.42
2023-01-09T05:07:39.906Z,40.38
2023-01-09T05:10:10.156Z,36.70
2023-01-09T05:12:37.821Z,32.25
2023-01-09T05:15:07.009Z,30.38
2023-01-09T05:17:34.819Z,32.72
2023-01-09T05:20:02.447Z,31.20
2023-01-09T05:22:30.059Z,31.52
2023-01-09T05:25:00.276Z,35.58
2023-01-09T05:27:28.191Z,34.90
2023-01-09T05:29:55.837Z,33.72
2023-01-09T05:32:23.178Z,33.55
2023-01-09T05:34:50.751Z,30.25
2023-01-09T05:37:18.029Z,32.25
2023-01-09T05:39:45.593Z,30.13
2023-01-09T05:42:12.841Z,30.45
2023-01-09T05:44:40.462Z,31.33
2023-01-09T05:47:07.749Z,26.98
2023-01-09T05:49:35.266Z,28.60
2023-01-09T05:52:02.683Z,28.02
2023-01-09T05:54:30.486Z,27.23
2023-01-09T05:56:58.079Z,24.02
2023-01-09T05:59:25.678Z,24.38
2023-01-09T06:01:54.479Z,24.05
2023-01-09T06:04:22.372Z,23.20
2023-01-09T06:06:49.637Z,24.08
2023-01-09T06:09:17.159Z,22.67
2023-01-09T06:11:44.479Z,21.75
2023-01-09T06:14:12.055Z,23.85
2023-01-09T06:16:39.421Z,22.48
2023-01-09T06:19:07.312Z,22.13
2023-01-09T06:21:34.829Z,21.95
2023-01-09T06:24:02.463Z,21.30
2023-01-09T06:26:29.857Z,20.00
2023-01-09T06:28:57.554Z,19.65
2023-01-09T06:31:25.537Z,20.58
2023-01-09T06:33:54.098Z,19.60
2023-01-09T06:36:22.595Z,19.60
2023-01-09T06:38:50.354Z,18.90
2023-01-09T06:41:18.469Z,20.63
2023-01-09T06:43:46.063Z,20.92
2023-01-09T06:46:13.528Z,20.25
2023-01-09T06:48:41.157Z,21.05
2023-01-09T06:51:08.551Z,22.60
2023-01-09T06:53:36.156Z,23.13
2023-01-09T06:56:03.733Z,24.88
2023-01-09T06:58:31.345Z,22.48
2023-01-09T07:01:01.640Z,23.48
2023-01-09T07:03:29.423Z,23.38
2023-01-09T07:05:57.021Z,25.10
2023-01-09T07:08:24.724Z,25.90
2023-01-09T07:10:52.892Z,25.10
2023-01-09T07:13:20.495Z,26.27
2023-01-09T07:15:47.873Z,25.05
2023-01-09T07:18:15.608Z,26.17
2023-01-09T07:20:42.955Z,27.63
2023-01-09T07:23:14.482Z,28.35
2023-01-09T07:25:45.725Z,25.67
2023-01-09T07:28:13.433Z,27.15
2023-01-09T07:30:40.793Z,26.15
2023-01-09T07:33:08.409Z,28.08
2023-01-09T07:35:35.981Z,30.77
2023-01-09T07:38:03.578Z,28.98
2023-01-09T07:40:31.037Z,28.98
2023-01-09T07:42:58.622Z,29.67
2023-01-09T07:45:25.954Z,28.27
2023-01-09T07:47:53.591Z,30.65
2023-01-09T07:50:21.079Z,31.15
2023-01-09T07:52:48.860Z,27.17
2023-01-09T07:55:17.563Z,28.40
2023-01-09T07:57:50.196Z,25.80
2023-01-09T08:00:19.068Z,25.98
2023-01-09T08:02:51.001Z,25.70
2023-01-09T08:05:19.130Z,23.67
2023-01-09T08:07:46.732Z,23.63
2023-01-09T08:10:14.063Z,22.17
2023-01-09T08:12:44.421Z,23.15
2023-01-09T08:15:12.782Z,21.42
2023-01-09T08:17:43.996Z,21.00
2023-01-09T08:20:13.466Z,23.38
2023-01-09T08:22:50.608Z,23.75
2023-01-09T08:25:18.703Z,23.13
2023-01-09T08:27:47.171Z,23.08
2023-01-09T08:30:15.870Z,24.35
2023-01-09T08:32:44.127Z,26.55
2023-01-09T08:35:12.074Z,24.40
2023-01-09T08:37:39.649Z,25.38
2023-01-09T08:40:07.909Z,25.27
2023-01-09T08:42:54.827Z,26.77
2023-01-09T08:45:40.786Z,26.88
2023-01-09T08:48:08.750Z,24.52
2023-01-09T08:50:36.153Z,23.75
2023-01-09T08:53:03.903Z,24.77
2023-01-09T08:55:31.257Z,24.33
2023-01-09T08:57:58.841Z,22.85
2023-01-09T09:00:26.658Z,24.50
2023-01-09T09:02:57.322Z,25.00
2023-01-09T09:05:27.638Z,22.48
2023-01-09T09:07:55.950Z,24.63
2023-01-09T09:10:26.884Z,24.70
2023-01-09T09:12:57.880Z,24.42
2023-01-09T09:15:28.243Z,24.27
2023-01-09T09:17:59.795Z,24.05
2023-01-09T09:20:31.273Z,22.95
2023-01-09T09:22:59.327Z,21.38
2023-01-09T09:25:27.845Z,21.25
2023-01-09T09:28:01.190Z,22.45
2023-01-09T09:30:28.855Z,21.10
2023-01-09T09:32:56.660Z,20.60
2023-01-09T09:35:24.072Z,18.15
2023-01-09T09:38:03.921Z,15.93
2023-01-09T09:40:43.004Z,16.08
2023-01-09T09:44:32.463Z,13.32
2023-01-09T09:47:11.078Z,13.65
2023-01-09T09:50:17.702Z,11.75
2023-01-09T09:52:50.705Z,11.00
2023-01-09T09:55:32.289Z,10.10
2023-01-09T09:58:30.742Z,8.60
2023-01-09T10:01:01.229Z,8.70
2023-01-09T10:03:49.202Z,7.57
2023-01-09T10:06:31.362Z,6.72
2023-01-09T10:09:16.819Z,7.15
2023-01-09T10:12:31.791Z,6.13
2023-01-09T10:15:17.972Z,6.25
2023-01-09T10:17:48.377Z,5.85
2023-01-09T10:20:36.634Z,5.45
2023-01-09T10:23:38.349Z,4.80
2023-01-09T10:26:21.969Z,5.22
2023-01-09T10:29:23.317Z,4.32
2023-01-09T10:32:33.493Z,4.82
2023-01-09T10:35:36.115Z,4.45
2023-01-09T10:38:15.938Z,3.83
2023-01-09T10:41:07.874Z,3.67
2023-01-09T10:43:44.738Z,3.20
2023-01-09T10:46:35.875Z,3.22
2023-01-09T10:49:16.514Z,3.30
2023-01-09T10:51:52.385Z,2.97
2023-01-09T10:54:23.840Z,3.00
2023-01-09T10:57:12.675Z,2.78
2023-01-09T10:59:42.439Z,3.22
2023-01-09T11:02:37.451Z,2.50
2023-01-09T11:05:05.206Z,2.38
2023-01-09T11:07:39.272Z,3.22
2023-01-09T11:10:12.227Z,2.95
2023-01-09T11:12:40.648Z,3.90
2023-01-09T11:15:17.092Z,2.28
2023-01-09T11:17:50.546Z,2.80
2023-01-09T11:20:28.782Z,2.80
2023-01-09T11:22:59.008Z,3.20
2023-01-09T11:25:29.425Z,2.85
2023-01-09T11:28:09.836Z,2.78
2023-01-09T11:30:51.945Z,3.20
2023-01-09T11:33:24.794Z,3.35
2023-01-09T11:36:00.520Z,3.58
2023-01-09T11:38:31.906Z,3.55
2023-01-09T11:41:04.026Z,3.90
2023-01-09T11:43:40.163Z,4.03
2023-01-09T11:46:11.696Z,4.60
2023-01-09T11:48:59.299Z,4.28
2023-01-09T11:51:36.905Z,4.35
2023-01-09T11:54:23.821Z,4.60
2023-01-09T11:56:52.521Z,5.28
2023-01-09T11:59:26.441Z,5.38
2023-01-09T12:02:29.521Z,5.28
2023-01-09T12:05:15.963Z,4.03
2023-01-09T12:08:26.366Z,3.80
2023-01-09T12:11:21.465Z,5.10
2023-01-09T12:14:20.580Z,5.43
2023-01-09T12:17:06.543Z,5.60
2023-01-09T12:20:10.167Z,5.47
2023-01-09T12:23:23.336Z,5.95
2023-01-09T12:26:11.485Z,6.65
2023-01-09T12:29:29.280Z,6.20
2023-01-09T12:32:34.956Z,5.28
2023-01-09T12:35:34.283Z,5.57
2023-01-09T12:38:29.538Z,4.88
2023-01-09T12:41:23.926Z,5.63
2023-01-09T12:44:08.867Z,4.72
2023-01-09T12:46:53.881Z,6.05
2023-01-09T12:49:35.665Z,6.22
2023-01-09T12:52:23.456Z,5.93
2023-01-09T12:55:17.123Z,6.82
2023-01-09T12:57:52.410Z,5.40
2023-01-09T13:00:58.732Z,5.53
2023-01-09T13:04:03.639Z,4.75
2023-01-09T13:06:37.483Z,5.00
2023-01-09T13:09:43.328Z,5.13
2023-01-09T13:12:21.739Z,5.63
2023-01-09T13:15:33.102Z,5.57
2023-01-09T13:18:23.122Z,5.60
2023-01-09T13:20:56.793Z,5.70
2023-01-09T13:24:01.824Z,5.57
2023-01-09T13:26:42.015Z,5.20
2023-01-09T13:29:22.855Z,6.25
2023-01-09T13:32:01.197Z,6.05
2023-01-09T13:34:32.507Z,6.28
2023-01-09T13:37:00.998Z,6.65
2023-01-09T13:39:33.943Z,7.85
2023-01-09T13:42:24.997Z,8.80
2023-01-09T13:45:11.052Z,9.32
2023-01-09T13:47:39.023Z,8.73
2023-01-09T13:50:22.281Z,8.95
2023-01-09T13:52:50.660Z,8.77
2023-01-09T13:55:18.049Z,10.18
2023-01-09T13:57:45.664Z,7.40
2023-01-09T14:00:13.000Z,7.07
2023-01-09T14:02:44.997Z,6.45
2023-01-09T14:05:16.389Z,7.40
2023-01-09T14:07:49.399Z,8.57
2023-01-09T14:10:52.292Z,7.28
2023-01-09T14:13:44.933Z,6.53
2023-01-09T14:16:27.319Z,6.18
2023-01-09T14:19:06.286Z,6.18
2023-01-09T14:22:04.662Z,6.97
2023-01-09T14:24:43.066Z,8.45
2023-01-09T14:27:55.519Z,8.32
2023-01-09T14:30:38.322Z,8.38
2023-01-09T14:33:18.607Z,7.78
2023-01-09T14:36:24.269Z,8.10
2023-01-09T14:39:08.107Z,7.80
2023-01-09T14:42:00.814Z,7.82
2023-01-09T14:44:43.379Z,7.20
2023-01-09T14:47:43.306Z,7.35
2023-01-09T14:50:46.531Z,9.07
2023-01-09T14:53:24.644Z,7.97
2023-01-09T14:55:58.154Z,8.00
2023-01-09T14:58:36.977Z,8.55
2023-01-09T15:01:15.235Z,8.07
2023-01-09T15:03:59.060Z,9.55
2023-01-09T15:06:36.197Z,9.82
2023-01-09T15:09:15.993Z,9.27
2023-01-09T15:11:45.072Z,10.13
2023-01-09T15:14:43.633Z,10.82
2023-01-09T15:17:30.713Z,12.57
2023-01-09T15:20:04.972Z,11.93
2023-01-09T15:22:35.872Z,12.55
2023-01-09T15:25:45.410Z,13.30
2023-01-09T15:28:35.021Z,14.07
2023-01-09T15:31:18.212Z,14.13
2023-01-09T15:33:48.529Z,14.55
2023-01-09T15:36:21.262Z,14.93
2023-01-09T15:38:50.873Z,13.98
2023-01-09T15:41:49.496Z,13.90
2023-01-09T15:44:30.324Z,14.88
2023-01-09T15:47:01.494Z,13.90
2023-01-09T15:49:29.811Z,14.48
2023-01-09T15:51:57.888Z,13.90
2023-01-09T15:54:33.047Z,14.45
2023-01-09T15:57:25.500Z,14.70
2023-01-09T16:00:17.751Z,15.90
2023-01-09T16:03:06.708Z,15.30
2023-01-09T16:05:34.162Z,15.15
2023-01-09T16:08:02.703Z,16.08
2023-01-09T16:10:36.092Z,18.33
2023-01-09T16:13:03.959Z,17.42
2023-01-09T16:15:35.109Z,20.05
2023-01-09T16:18:15.620Z,20.70
2023-01-09T16:20:44.489Z,22.13
2023-01-09T16:23:29.641Z,22.00
2023-01-09T16:26:04.212Z,20.40
2023-01-09T16:28:32.304Z,19.38
2023-01-09T16:31:27.258Z,18.77
2023-01-09T16:34:07.439Z,19.25
2023-01-09T16:36:36.721Z,19.70
2023-01-09T16:39:04.839Z,19.75
2023-01-09T16:41:50.519Z,22.10
2023-01-09T16:44:19.531Z,24.30
2023-01-09T16:46:47.036Z,24.38
2023-01-09T16:49:23.655Z,22.13
2023-01-09T16:51:52.241Z,22.00
2023-01-09T16:54:20.993Z,23.65
2023-01-09T16:56:52.339Z,24.33
2023-01-09T16:59:26.698Z,22.77
2023-01-09T17:01:55.450Z,21.02
2023-01-09T17:04:26.101Z,19.38
2023-01-09T17:06:53.528Z,20.65
2023-01-09T17:09:24.593Z,21.55
2023-01-09T17:11:53.291Z,22.48
2023-01-09T17:14:20.978Z,20.25
2023-01-09T17:16:48.589Z,21.77
2023-01-09T17:19:20.735Z,24.15
2023-01-09T17:21:48.156Z,25.95
2023-01-09T17:24:34.365Z,28.75
2023-01-09T17:27:21.484Z,24.60
2023-01-09T17:29:49.127Z,24.08
2023-01-09T17:32:18.631Z,22.80
2023-01-09T17:34:46.401Z,22.27
2023-01-09T17:37:16.607Z,23.73
2023-01-09T17:39:45.864Z,22.55
2023-01-09T17:42:13.394Z,22.25
2023-01-09T17:44:41.082Z,23.55
2023-01-09T17:47:16.074Z,23.92
2023-01-09T17:49:44.193Z,24.05
2023-01-09T17:52:11.497Z,28.42
2023-01-09T17:54:39.973Z,30.88
2023-01-09T17:57:09.539Z,33.45
2023-01-09T17:59:37.240Z,34.25
2023-01-09T18:02:04.885Z,33.25
2023-01-09T18:04:32.576Z,32.67
2023-01-09T18:06:59.887Z,28.75
2023-01-09T18:09:27.487Z,27.67
2023-01-09T18:11:54.809Z,27.02
2023-01-09T18:14:22.358Z,26.42
2023-01-09T18:16:49.915Z,23.73
2023-01-09T18:19:17.537Z,25.80
2023-01-09T18:21:46.875Z,23.65
2023-01-09T18:24:14.520Z,23.33
2023-01-09T18:26:41.894Z,24.35
2023-01-09T18:29:11.575Z,24.92
2023-01-09T18:31:38.914Z,27.75
2023-01-09T18:34:07.561Z,30.48
2023-01-09T18:36:35.605Z,27.25
2023-01-09T18:39:05.585Z,30.70
2023-01-09T18:41:33.131Z,32.45
2023-01-09T18:44:01.962Z,30.30
2023-01-09T18:46:32.897Z,29.85
2023-01-09T18:49:04.026Z,30.20
2023-01-09T18:51:35.057Z,27.38
2023-01-09T18:54:02.858Z,23.85
2023-01-09T18:56:30.396Z,22.20
2023-01-09T18:58:58.323Z,17.13
2023-01-09T19:01:28.577Z,20.52
2023-01-09T19:03:57.934Z,22.00
2023-01-09T19:06:30.248Z,22.42
2023-01-09T19:09:01.126Z,25.42
2023-01-09T19:11:28.652Z,26.33
2023-01-09T19:13:56.547Z,29.95
2023-01-09T19:16:23.868Z,33.85
2023-01-09T19:18:51.610Z,33.15
2023-01-09T19:21:23.783Z,34.90
2023-01-09T19:23:51.444Z,32.13
2023-01-09T19:26:31.017Z,31.23
2023-01-09T19:28:59.599Z,28.20
2023-01-09T19:31:31.564Z,25.88
2023-01-09T19:33:59.268Z,23.02
2023-01-09T19:36:28.031Z,22.25
2023-01-09T19:39:00.952Z,22.10
2023-01-09T19:41:28.988Z,23.63
2023-01-09T19:43:56.807Z,22.85
2023-01-09T19:46:25.657Z,23.02
2023-01-09T19:48:54.250Z,23.60
2023-01-09T19:51:22.490Z,23.55
2023-01-09T19:56:30.322Z,22.70
2023-01-09T19:59:01.609Z,23.42
2023-01-09T20:01:33.171Z,19.35
2023-01-09T20:04:05.045Z,18.70
2023-01-09T20:06:32.886Z,23.40
2023-01-09T20:09:04.119Z,25.20
2023-01-09T20:11:33.233Z,24.92
2023-01-09T20:14:01.126Z,23.30
2023-01-09T20:16:30.865Z,23.52
2023-01-09T20:19:03.989Z,23.17
2023-01-09T20:21:31.443Z,22.45
2023-01-09T20:24:01.470Z,25.38
2023-01-09T20:26:30.456Z,43.70
2023-01-09T20:28:58.329Z,41.22
2023-01-09T20:31:28.586Z,47.17
2023-01-09T20:33:56.218Z,27.88
2023-01-09T20:36:29.183Z,26.45
2023-01-09T20:39:00.123Z,27.55
2023-01-09T20:41:30.831Z,25.88
2023-01-09T20:44:06.845Z,30.30
2023-01-09T20:46:41.377Z,30.58
2023-01-09T20:49:13.426Z,30.42
2023-01-09T20:51:46.123Z,25.45
2023-01-09T20:54:15.128Z,29.63
2023-01-09T20:56:42.988Z,29.15
2023-01-09T20:59:23.186Z,34.70
2023-01-09T21:01:51.568Z,34.88
2023-01-09T21:04:19.650Z,34.28
2023-01-09T21:06:49.733Z,31.67
2023-01-09T21:09:17.723Z,30.20
2023-01-09T21:11:45.449Z,32.42
2023-01-09T21:14:12.800Z,29.33
2023-01-09T21:16:40.491Z,31.90
2023-01-09T21:19:07.920Z,31.88
2023-01-09T21:21:35.534Z,36.55
2023-01-09T21:24:04.578Z,35.80
2023-01-09T21:26:32.294Z,36.33
2023-01-09T21:29:02.071Z,30.10
2023-01-09T21:31:35.566Z,27.77
2023-01-09T21:34:08.579Z,28.35
2023-01-09T21:36:36.626Z,32.00
2023-01-09T21:39:08.121Z,28.33
2023-01-09T21:41:54.865Z,29.90
2023-01-09T21:44:40.704Z,28.50
2023-01-09T21:47:08.706Z,29.75
2023-01-09T21:49:41.823Z,27.90
2023-01-09T21:52:13.878Z,28.67
2023-01-09T21:54:42.023Z,25.95
2023-01-09T21:57:10.443Z,24.30
2023-01-09T21:59:37.809Z,24.95
2023-01-09T22:02:05.416Z,23.85
2023-01-09T22:04:33.630Z,23.63
2023-01-09T22:07:01.344Z,22.55
2023-01-09T22:09:28.702Z,21.67
2023-01-09T22:11:57.553Z,22.75
2023-01-09T22:14:24.835Z,26.95
2023-01-09T22:16:52.448Z,26.67
2023-01-09T22:19:19.819Z,24.60
2023-01-09T22:21:48.263Z,23.13
2023-01-09T22:24:18.821Z,22.92
2023-01-09T22:26:46.702Z,21.77
2023-01-09T22:29:16.212Z,22.00
2023-01-09T22:31:44.073Z,23.98
2023-01-09T22:34:16.177Z,22.45
2023-01-09T22:36:45.988Z,22.95
2023-01-09T22:39:17.078Z,21.15
2023-01-09T22:41:45.624Z,22.13
2023-01-09T22:44:13.375Z,24.65
2023-01-09T22:46:41.178Z,21.73
2023-01-09T22:49:12.085Z,23.77
2023-01-09T22:51:40.205Z,25.85
2023-01-09T22:54:07.762Z,23.23
2023-01-09T22:56:35.705Z,25.38
2023-01-09T22:59:03.281Z,27.95
2023-01-09T23:01:31.016Z,27.83
2023-01-09T23:03:58.325Z,27.00
2023-01-09T23:06:26.168Z,28.27
2023-01-09T23:08:53.754Z,29.33
2023-01-09T23:11:45.397Z,26.63
2023-01-09T23:14:13.340Z,29.42
2023-01-09T23:16:41.137Z,30.13
2023-01-09T23:19:17.495Z,32.58
2023-01-09T23:21:46.085Z,29.15
2023-01-09T23:24:16.898Z,32.40
2023-01-09T23:26:45.142Z,29.90
2023-01-09T23:29:13.767Z,32.58
2023-01-09T23:31:41.507Z,30.33
2023-01-09T23:34:13.413Z,29.58
2023-01-09T23:36:41.761Z,27.10
2023-01-09T23:39:10.147Z,27.00
2023-01-09T23:42:03.778Z,26.75
2023-01-09T23:44:31.232Z,25.85
2023-01-09T23:46:58.872Z,23.50
2023-01-09T23:49:26.426Z,20.35
2023-01-09T23:52:12.292Z,20.45
2023-01-09T23:54:39.894Z,19.80
2023-01-09T23:57:07.223Z,19.65
2023-01-09T23:59:34.994Z,17.95
